Time;durP1;ratioP1;P1;durP2;ratioP2;P2;SDS_P1;SDS_P2;PMS_P1;PMS_P2;Temp;Humidity;BMP_temperature;BMP_pressure;BME280_temperature;BME280_humidity;BME280_pressure;Samples;Min_cycle;Max_cycle;Signal;HPM_P1;HPM_P2
2021/04/04 00:01:01;;;;;;;2.62;2.42;;;;;;;4.82;65.05;96423.98;1728065;81;21547;-62
2021/04/04 00:03:29;;;;;;;2.83;2.50;;;;;;;4.75;65.19;96426.45;1711447;82;21159;-61
2021/04/04 00:05:57;;;;;;;2.47;2.27;;;;;;;4.66;65.36;96427.75;1751128;82;21329;-63
2021/04/04 00:08:25;;;;;;;2.35;2.05;;;;;;;4.61;65.47;96433.58;1739418;82;21198;-60
2021/04/04 00:10:54;;;;;;;;;;;;;;;4.57;65.58;96432.05;1731005;82;21369;-63
2021/04/04 00:13:22;;;;;;;2.52;2.30;;;;;;;4.53;65.80;96438.27;1723358;82;20502;-60
2021/04/04 00:15:50;;;;;;;2.70;2.50;;;;;;;4.46;65.98;96436.45;1721554;82;21132;-61
2021/04/04 00:18:19;;;;;;;2.85;2.58;;;;;;;4.39;66.16;96438.48;1748940;82;21147;-63
2021/04/04 00:20:48;;;;;;;2.50;2.30;;;;;;;4.34;66.33;96442.16;1726407;82;21131;-62
2021/04/04 00:23:15;;;;;;;2.20;2.10;;;;;;;4.31;66.40;96444.88;1736590;82;21383;-62
2021/04/04 00:25:44;;;;;;;3.00;2.70;;;;;;;4.22;66.56;96445.69;1731025;82;21115;-62
2021/04/04 00:28:12;;;;;;;2.75;2.55;;;;;;;4.12;66.81;96449.60;1722417;82;21092;-62
2021/04/04 00:30:39;;;;;;;2.77;2.58;;;;;;;4.05;67.11;96452.09;1726592;81;21147;-60
2021/04/04 00:33:08;;;;;;;2.98;2.60;;;;;;;4.04;67.23;96459.40;1723649;82;21150;-60
2021/04/04 00:35:37;;;;;;;2.95;2.75;;;;;;;4.07;67.28;96466.97;1744503;82;21127;-59
2021/04/04 00:38:08;;;;;;;3.75;3.45;;;;;;;4.11;67.35;96462.52;1751057;82;21626;-60
2021/04/04 00:40:36;;;;;;;3.67;3.37;;;;;;;4.11;67.46;96468.50;1742395;82;21669;-60
2021/04/04 00:43:05;;;;;;;4.43;4.03;;;;;;;4.11;67.53;96469.78;1733354;82;21088;-60
2021/04/04 00:45:35;;;;;;;4.50;4.03;;;;;;;4.09;67.51;96471.57;1751140;82;21192;-60
2021/04/04 00:48:05;;;;;;;4.85;4.45;;;;;;;4.09;67.57;96473.31;1751328;80;21370;-59
2021/04/04 00:50:36;;;;;;;3.92;3.62;;;;;;;4.08;67.58;96472.49;1726271;82;21108;-60
2021/04/04 00:53:05;;;;;;;3.98;3.50;;;;;;;4.04;67.64;96471.78;1732483;80;21457;-59
2021/04/04 00:55:35;;;;;;;4.37;4.08;;;;;;;4.04;67.71;96475.62;1749262;82;26917;-60
2021/04/04 00:58:04;;;;;;;4.42;3.80;;;;;;;4.05;67.67;96475.20;1728400;82;21089;-59
2021/04/04 01:00:33;;;;;;;4.60;4.20;;;;;;;4.04;67.82;96482.05;1721394;83;21198;-60
2021/04/04 01:03:26;;;;;;;4.75;4.35;;;;;;;4.12;67.77;96480.42;1723341;82;21083;-61
2021/04/04 01:05:55;;;;;;;5.40;4.90;;;;;;;4.16;67.72;96484.52;1782320;80;21543;-61
2021/04/04 01:08:23;;;;;;;5.62;5.03;;;;;;;4.21;67.69;96486.42;1754022;80;21162;-62
2021/04/04 01:10:50;;;;;;;7.03;5.30;;;;;;;4.29;67.53;96483.94;1765000;80;21166;-61
2021/04/04 01:13:49;;;;;;;7.97;6.30;;;;;;;4.35;67.25;96488.33;1753192;80;21563;-62
2021/04/04 01:16:36;;;;;;;6.45;5.85;;;;;;;4.39;67.10;96485.16;1741115;82;21094;-62
2021/04/04 01:19:41;;;;;;;6.60;6.00;;;;;;;4.36;66.95;96495.14;1751043;82;21063;-62
2021/04/04 01:22:38;;;;;;;6.85;6.15;;;;;;;4.32;67.06;96495.35;1727389;82;21578;-63
2021/04/04 01:25:37;;;;;;;6.33;5.72;;;;;;;4.29;67.23;96491.17;1732769;82;21067;-63
2021/04/04 01:28:21;;;;;;;5.60;5.10;;;;;;;4.29;67.27;96492.46;1749174;81;22259;-63
2021/04/04 01:30:49;;;;;;;6.10;5.55;;;;;;;4.32;67.30;96493.61;1721459;81;21068;-61
2021/04/04 01:33:18;;;;;;;5.97;5.40;;;;;;;4.34;67.40;96496.11;1723601;82;21082;-61
2021/04/04 01:35:49;;;;;;;6.45;5.65;;;;;;;4.36;67.45;96495.61;1721650;83;21503;-61
2021/04/04 01:38:22;;;;;;;6.00;5.40;;;;;;;4.40;67.42;96493.25;1729089;82;21078;-61
2021/04/04 01:40:54;;;;;;;6.37;5.78;;;;;;;4.42;67.35;96485.87;1744538;82;21382;-64
2021/04/04 01:43:22;;;;;;;6.03;5.42;;;;;;;4.42;67.27;96497.86;1751382;82;21150;-60
2021/04/04 01:45:49;;;;;;;6.28;5.67;;;;;;;4.40;67.24;96494.08;1751373;82;21158;-60
2021/04/04 01:48:17;;;;;;;6.12;5.55;;;;;;;4.35;67.33;96489.61;1751134;82;21499;-60
2021/04/04 01:50:45;;;;;;;6.75;6.12;;;;;;;4.33;67.44;96495.28;1751160;82;21079;-63
2021/04/04 01:53:19;;;;;;;6.07;5.57;;;;;;;4.32;67.54;96493.61;1751089;82;22290;-62
2021/04/04 01:55:46;;;;;;;5.65;5.15;;;;;;;4.30;67.66;96486.89;1740911;82;21095;-61
2021/04/04 01:58:14;;;;;;;6.65;5.70;;;;;;;4.29;68.04;96489.07;1731101;82;21126;-61
2021/04/04 02:00:42;;;;;;;7.67;6.20;;;;;;;4.29;68.04;96489.07;1722805;82;21566;-62
2021/04/04 02:03:10;;;;;;;7.28;6.58;;;;;;;4.32;68.09;96500.48;1713857;82;26575;-62
2021/04/04 02:05:38;;;;;;;8.68;6.65;;;;;;;4.32;68.07;96498.74;1751571;82;21297;-62
2021/04/04 02:08:10;;;;;;;7.55;6.55;;;;;;;4.32;68.04;96497.45;1751813;82;21094;-61
2021/04/04 02:10:38;;;;;;;8.58;7.62;;;;;;;4.33;68.01;96494.45;1734102;82;21074;-61
2021/04/04 02:13:05;;;;;;;9.13;7.30;;;;;;;4.33;67.89;96492.72;1745959;82;21067;-62
2021/04/04 02:15:33;;;;;;;10.87;7.60;;;;;;;4.29;67.79;96505.30;1752166;81;21579;-62
2021/04/04 02:18:01;;;;;;;8.40;7.47;;;;;;;4.24;67.82;96504.26;1735163;82;21381;-61
2021/04/04 02:20:30;;;;;;;8.15;7.15;;;;;;;4.26;67.88;96511.04;1751339;81;21621;-61
2021/04/04 02:23:02;;;;;;;7.83;6.83;;;;;;;4.29;68.02;96507.05;1722039;83;26367;-61
2021/04/04 02:25:29;;;;;;;7.90;7.03;;;;;;;4.30;67.97;96514.69;1738153;81;21206;-61
2021/04/04 02:27:59;;;;;;;8.75;7.83;;;;;;;4.30;67.96;96519.82;1751703;81;21075;-60
2021/04/04 02:30:26;;;;;;;9.05;7.72;;;;;;;4.32;67.88;96520.58;1751470;82;21435;-61
2021/04/04 02:33:14;;;;;;;9.55;8.00;;;;;;;4.35;67.85;96520.44;1750363;81;21126;-64
2021/04/04 02:35:44;;;;;;;9.08;8.15;;;;;;;4.35;67.84;96516.59;1744623;81;21165;-64
2021/04/04 02:38:20;;;;;;;9.35;7.90;;;;;;;4.34;67.87;96525.64;1760414;80;21123;-63
2021/04/04 02:40:48;;;;;;;9.08;8.10;;;;;;;4.35;67.83;96516.59;1736676;81;21069;-63
2021/04/04 02:43:17;;;;;;;7.87;7.08;;;;;;;4.39;67.67;96523.69;1740461;82;21218;-63
2021/04/04 02:45:44;;;;;;;8.35;7.50;;;;;;;4.40;67.72;96518.94;1727416;83;28264;-61
2021/04/04 02:48:16;;;;;;;10.07;7.60;;;;;;;4.41;67.91;96518.05;1726312;82;21138;-62
2021/04/04 02:50:45;;;;;;;8.03;7.22;;;;;;;4.45;67.86;96523.88;1751985;82;21162;-62
2021/04/04 02:53:12;;;;;;;9.65;7.95;;;;;;;4.46;67.75;96529.37;1752049;82;21130;-62
2021/04/04 02:55:40;;;;;;;10.23;7.40;;;;;;;4.45;67.59;96522.59;1750695;81;21190;-62
2021/04/04 02:58:09;;;;;;;9.18;7.83;;;;;;;4.43;67.65;96523.94;1744465;82;21086;-62
2021/04/04 03:00:39;;;;;;;8.80;7.92;;;;;;;4.40;67.63;96534.36;1752035;82;21063;-62
2021/04/04 03:03:08;;;;;;;9.65;7.95;;;;;;;4.37;67.73;96534.03;1751657;82;21055;-62
2021/04/04 03:05:36;;;;;;;8.93;7.95;;;;;;;4.38;67.84;96531.03;1742222;81;21087;-62
2021/04/04 03:08:07;;;;;;;9.30;7.87;;;;;;;4.38;67.87;96534.89;1675281;85;21366;-62
2021/04/04 03:10:34;;;;;;;9.88;7.83;;;;;;;4.40;67.89;96537.75;1702399;82;21102;-62
2021/04/04 03:13:04;;;;;;;8.73;7.30;;;;;;;4.41;67.83;96542.00;1705963;84;21168;-62
2021/04/04 03:15:31;;;;;;;8.23;7.20;;;;;;;4.42;67.89;96540.25;1731523;82;21139;-61
2021/04/04 03:18:00;;;;;;;8.75;7.85;;;;;;;4.41;67.93;96550.98;1705108;82;26203;-61
2021/04/04 03:20:28;;;;;;;11.05;9.08;;;;;;;4.44;67.85;96541.03;1704839;83;22165;-64
2021/04/04 03:22:57;;;;;;;9.88;8.88;;;;;;;4.37;67.83;96543.48;1727513;82;21071;-63
2021/04/04 03:25:25;;;;;;;13.03;10.72;;;;;;;4.31;67.90;96543.77;1729983;82;21072;-60
2021/04/04 03:27:55;;;;;;;251.88;150.75;;;;;;;4.24;68.18;96551.78;1734027;82;21559;-60
2021/04/04 03:30:35;;;;;;;31.85;19.23;;;;;;;4.28;68.41;96556.31;1730834;82;21127;-62
2021/04/04 03:33:05;;;;;;;13.48;10.95;;;;;;;4.38;68.22;96555.44;1710251;82;22302;-61
2021/04/04 03:35:33;;;;;;;14.50;9.35;;;;;;;4.39;67.96;96563.08;1710615;82;21588;-60
2021/04/04 03:38:04;;;;;;;10.93;8.30;;;;;;;4.39;67.90;96558.37;1712406;82;21128;-61
2021/04/04 03:40:31;;;;;;;12.10;9.05;;;;;;;4.41;67.87;96558.70;1706277;84;21239;-62
2021/04/04 03:43:06;;;;;;;11.15;9.20;;;;;;;4.43;67.90;96563.30;1677135;83;21168;-61
2021/04/04 03:45:33;;;;;;;12.28;8.38;;;;;;;4.47;67.73;96558.84;1720087;82;21353;-60
2021/04/04 03:48:03;;;;;;;10.13;9.03;;;;;;;4.46;67.63;96561.48;1709843;82;21099;-60
2021/04/04 03:50:53;;;;;;;10.38;9.18;;;;;;;4.46;67.66;96566.20;1706884;84;21190;-60
2021/04/04 03:53:21;;;;;;;12.05;8.88;;;;;;;4.45;67.59;96565.80;1737830;81;21106;-62
2021/04/04 03:55:53;;;;;;;11.57;9.25;;;;;;;4.43;67.57;96567.62;1726601;81;21209;-60
2021/04/04 03:58:22;;;;;;;10.98;9.28;;;;;;;4.41;67.54;96572.00;1722749;81;21206;-61
2021/04/04 04:00:51;;;;;;;9.85;8.45;;;;;;;4.38;67.63;96574.25;1727158;81;21086;-62
2021/04/04 04:03:19;;;;;;;11.73;8.58;;;;;;;4.38;67.65;96575.53;1728092;81;21091;-62
2021/04/04 04:05:48;;;;;;;12.03;8.25;;;;;;;4.38;67.63;96570.86;1727336;81;21575;-61
2021/04/04 04:08:16;;;;;;;11.57;8.88;;;;;;;4.36;67.60;96576.06;1729214;81;21581;-62
2021/04/04 04:10:44;;;;;;;13.40;9.50;;;;;;;4.31;67.70;96579.72;1730975;81;21266;-62
2021/04/04 04:13:13;;;;;;;13.28;9.43;;;;;;;4.27;67.79;96579.50;1716382;81;21543;-62
2021/04/04 04:15:41;;;;;;;11.80;8.90;;;;;;;4.26;67.74;96581.25;1728052;81;21076;-62
2021/04/04 04:18:09;;;;;;;16.77;9.75;;;;;;;4.24;67.64;96582.59;1730502;81;21148;-62
2021/04/04 04:20:38;;;;;;;11.25;9.78;;;;;;;4.21;67.55;96584.02;1724284;81;21095;-61
2021/04/04 04:23:08;;;;;;;12.53;9.63;;;;;;;4.14;67.64;96586.45;1689118;82;22296;-63
2021/04/04 04:25:37;;;;;;;11.73;8.35;;;;;;;4.13;67.77;96590.38;1723832;81;21149;-62
2021/04/04 04:28:06;;;;;;;12.45;8.80;;;;;;;4.14;67.70;96587.74;1740938;80;21148;-62
2021/04/04 04:30:34;;;;;;;;;;;;;;;4.15;67.76;96589.88;1684971;81;21174;-63
2021/04/04 04:33:06;;;;;;;12.98;8.88;;;;;;;4.19;67.75;96596.53;1724565;81;20229;-61
2021/04/04 04:35:35;;;;;;;12.63;9.28;;;;;;;4.23;67.63;96595.05;1722851;81;21383;-62
2021/04/04 04:38:10;;;;;;;12.35;9.55;;;;;;;4.29;67.34;96595.66;1734898;81;21250;-61
2021/04/04 04:40:38;;;;;;;11.88;9.25;;;;;;;4.32;67.28;96594.25;1726029;81;21513;-61
2021/04/04 04:43:06;;;;;;;10.58;8.83;;;;;;;4.34;66.91;96598.42;1745182;80;21164;-62
2021/04/04 04:45:38;;;;;;;12.65;10.28;;;;;;;4.31;66.96;96599.84;1739131;80;21160;-63
2021/04/04 04:48:08;;;;;;;11.50;9.15;;;;;;;4.34;66.92;96602.28;1744679;80;22295;-63
2021/04/04 04:50:36;;;;;;;;;;;;;;;4.38;66.70;96602.97;1754561;80;21212;-62
2021/04/04 04:53:04;;;;;;;11.12;9.05;;;;;;;4.42;66.54;96608.33;1760271;79;20266;-62
2021/04/04 04:55:32;;;;;;;11.30;9.43;;;;;;;4.45;66.53;96606.91;1763203;79;21142;-62
2021/04/04 04:57:59;;;;;;;12.43;9.73;;;;;;;4.53;66.47;96609.96;1762245;79;21097;-63
2021/04/04 05:00:27;;;;;;;14.03;10.72;;;;;;;4.61;66.22;96613.01;1765945;79;22298;-63
2021/04/04 05:02:54;;;;;;;17.85;10.95;;;;;;;4.68;65.88;96616.13;1767029;79;21147;-63
2021/04/04 05:05:22;;;;;;;14.00;10.85;;;;;;;4.75;65.59;96612.81;1773189;79;21527;-62
2021/04/04 05:07:51;;;;;;;17.23;10.75;;;;;;;4.79;65.28;96608.75;1761981;80;21602;-62
2021/04/04 05:10:18;;;;;;;14.05;10.10;;;;;;;4.83;65.10;96618.43;1730932;80;21050;-62
2021/04/04 05:12:52;;;;;;;12.82;9.98;;;;;;;4.86;64.75;96613.15;1774572;79;21443;-62
2021/04/04 05:15:20;;;;;;;12.98;9.80;;;;;;;4.88;64.46;96614.36;1772491;79;21114;-62
2021/04/04 05:17:48;;;;;;;12.20;9.93;;;;;;;4.88;64.36;96616.47;1755291;80;21075;-62
2021/04/04 05:20:18;;;;;;;11.60;9.45;;;;;;;4.89;64.27;96622.47;1767305;79;21084;-62
2021/04/04 05:22:47;;;;;;;12.28;9.18;;;;;;;4.90;64.13;96620.25;1767465;79;21130;-62
2021/04/04 05:25:14;;;;;;;10.18;8.00;;;;;;;4.97;63.98;96628.91;1757281;79;22087;-63
2021/04/04 05:27:43;;;;;;;12.65;9.55;;;;;;;5.11;63.67;96627.41;1761886;79;21162;-63
2021/04/04 05:30:12;;;;;;;13.85;10.20;;;;;;;5.44;63.45;96631.81;1762932;79;21063;-62
2021/04/04 05:32:47;;;;;;;13.65;10.65;;;;;;;6.06;62.05;96630.41;1771714;79;21086;-62
2021/04/04 05:35:17;;;;;;;12.23;9.73;;;;;;;6.51;60.42;96630.64;1773830;79;21115;-63
2021/04/04 05:37:47;;;;;;;12.90;10.10;;;;;;;6.77;59.39;96626.65;1771545;79;21419;-66
2021/04/04 05:40:22;;;;;;;14.33;9.43;;;;;;;6.85;58.50;96632.69;1772479;79;21107;-66
2021/04/04 05:42:57;;;;;;;14.03;9.43;;;;;;;6.87;57.93;96633.42;1764542;79;21075;-65
2021/04/04 05:45:39;;;;;;;13.55;8.98;;;;;;;6.90;57.66;96632.44;1763909;79;21595;-66
2021/04/04 05:48:21;;;;;;;14.78;8.68;;;;;;;7.12;56.80;96638.52;1760565;79;21170;-65
2021/04/04 05:51:01;;;;;;;10.55;8.33;;;;;;;7.33;56.33;96640.36;1770124;79;22318;-63
2021/04/04 05:54:20;;;;;;;11.30;8.93;;;;;;;7.94;55.51;96634.67;1888573;75;27837;-64
2021/04/04 05:56:51;;;;;;;12.93;8.58;;;;;;;8.82;53.65;96633.27;1840461;77;21115;-62
2021/04/04 05:59:30;;;;;;;11.22;8.15;;;;;;;10.11;50.48;96626.59;1846343;76;21461;-63
2021/04/04 06:02:06;;;;;;;10.98;7.70;;;;;;;11.08;48.21;96634.14;1854561;76;21029;-62
2021/04/04 06:04:58;;;;;;;8.65;7.25;;;;;;;11.99;45.88;96636.62;1856039;76;21167;-63
2021/04/04 06:07:49;;;;;;;9.55;7.42;;;;;;;12.73;43.91;96637.45;1857586;76;22393;-63
2021/04/04 06:10:22;;;;;;;9.18;7.20;;;;;;;13.50;42.56;96635.72;1853216;77;21062;-63
2021/04/04 06:13:23;;;;;;;9.53;7.45;;;;;;;14.43;40.75;96628.38;1845466;77;23122;-64
2021/04/04 06:16:13;;;;;;;8.08;7.10;;;;;;;15.11;38.81;96632.17;1771565;79;21149;-62
2021/04/04 06:19:14;;;;;;;9.50;6.80;;;;;;;15.78;37.04;96630.56;1742104;81;21061;-65
2021/04/04 06:22:08;;;;;;;9.08;6.95;;;;;;;16.18;36.32;96638.66;1751730;81;21576;-64
2021/04/04 06:25:06;;;;;;;8.53;6.60;;;;;;;16.68;35.34;96633.61;1745679;81;21151;-71
2021/04/04 06:27:45;;;;;;;9.58;7.22;;;;;;;17.22;34.48;96641.58;1680929;84;21808;-69
2021/04/04 06:30:52;;;;;;;9.15;6.47;;;;;;;17.91;33.52;96637.95;1875821;75;23208;-69
2021/04/04 06:33:28;;;;;;;8.18;6.35;;;;;;;17.99;32.89;96642.80;1827261;78;21442;-69
2021/04/04 06:36:22;;;;;;;8.43;6.65;;;;;;;17.77;32.60;96640.12;1790803;80;21361;-69
2021/04/04 06:39:26;;;;;;;7.45;6.20;;;;;;;17.01;33.19;96645.81;1795480;77;20973;-69
2021/04/04 06:42:09;;;;;;;7.37;6.45;;;;;;;15.95;34.39;96654.72;1815981;77;21107;-70
2021/04/04 06:45:27;;;;;;;7.70;6.53;;;;;;;15.08;35.56;96647.17;1816456;77;21204;-69
2021/04/04 06:48:05;;;;;;;35.03;27.37;;;;;;;14.58;36.65;96654.14;1767395;79;21597;-63
2021/04/04 06:50:37;;;;;;;16.47;12.53;;;;;;;14.32;37.71;96654.56;1807626;77;21354;-67
2021/04/04 06:53:40;;;;;;;12.93;8.60;;;;;;;14.48;37.76;96656.22;1813771;77;21533;-71
2021/04/04 06:56:27;;;;;;;8.83;6.20;;;;;;;14.80;36.74;96659.20;1813517;77;21074;-71
2021/04/04 06:59:17;;;;;;;7.60;6.00;;;;;;;15.55;35.51;96661.38;1786775;77;21112;-71
2021/04/04 07:02:04;;;;;;;8.30;5.33;;;;;;;16.34;34.70;96665.08;1794363;79;21126;-72
2021/04/04 07:04:45;;;;;;;6.95;5.80;;;;;;;17.31;33.30;96660.87;1809044;78;21445;-71
2021/04/04 07:07:53;;;;;;;7.12;5.62;;;;;;;18.36;32.04;96659.27;1814344;78;21172;-65
2021/04/04 07:10:57;;;;;;;7.05;5.70;;;;;;;19.38;29.96;96654.91;1787578;79;21194;-59
2021/04/04 07:14:04;;;;;;;6.75;5.87;;;;;;;20.28;29.34;96657.23;1818009;77;21158;-59
2021/04/04 07:17:01;;;;;;;6.20;5.60;;;;;;;21.22;28.10;96658.26;1745679;80;21109;-57
2021/04/04 07:19:57;;;;;;;5.83;5.22;;;;;;;21.79;26.67;96659.73;1756115;80;22300;-59
2021/04/04 07:23:06;;;;;;;5.90;5.30;;;;;;;22.27;25.99;96658.16;1746676;80;21164;-56
2021/04/04 07:25:57;;;;;;;6.95;5.10;;;;;;;22.34;25.11;96655.64;1733064;81;21121;-56
2021/04/04 07:28:51;;;;;;;59.60;53.13;;;;;;;22.05;25.12;96648.75;1750237;80;21124;-56
2021/04/04 07:31:27;;;;;;;23.10;15.88;;;;;;;21.60;25.95;96654.41;1783025;78;21492;-56
2021/04/04 07:34:16;;;;;;;21.93;9.93;;;;;;;21.39;26.14;96655.52;1796319;79;21281;-56
2021/04/04 07:37:00;;;;;;;6.60;5.08;;;;;;;21.35;25.73;96649.77;1769640;80;21115;-55
2021/04/04 07:39:36;;;;;;;5.03;4.40;;;;;;;21.38;25.30;96649.91;1773795;79;21092;-55
2021/04/04 07:42:23;;;;;;;5.15;4.28;;;;;;;21.01;24.97;96652.77;1787400;79;21187;-56
2021/04/04 07:45:18;;;;;;;5.50;4.78;;;;;;;19.91;26.03;96664.69;1787046;79;21073;-56
2021/04/04 07:48:07;;;;;;;7.55;5.03;;;;;;;18.71;27.52;96656.97;1768356;79;21205;-56
2021/04/04 07:50:38;;;;;;;;;;;;;;;18.54;28.39;96652.64;1749850;80;21123;-55
2021/04/04 07:53:32;;;;;;;5.22;4.10;;;;;;;18.91;28.71;96652.81;1791782;78;20270;-58
2021/04/04 07:56:17;;;;;;;4.50;3.62;;;;;;;18.76;28.05;96649.44;1746059;79;21163;-56
2021/04/04 07:58:58;;;;;;;4.40;4.00;;;;;;;17.81;28.67;96656.38;1790087;78;21574;-56
2021/04/04 08:01:35;;;;;;;5.00;3.90;;;;;;;16.68;29.72;96658.00;1783229;78;21207;-56
2021/04/04 08:04:15;;;;;;;4.35;3.95;;;;;;;15.73;30.99;96657.10;1766464;80;21162;-60
2021/04/04 08:06:50;;;;;;;4.37;3.85;;;;;;;15.35;31.97;96661.86;1768239;79;21184;-58
2021/04/04 08:09:33;;;;;;;6.50;3.95;;;;;;;15.99;32.18;96658.69;1791496;78;21085;-56
2021/04/04 08:12:14;;;;;;;5.75;4.28;;;;;;;16.82;30.69;96654.55;1785568;79;21104;-56
2021/04/04 08:15:09;;;;;;;4.85;4.28;;;;;;;17.46;29.55;96658.05;1735994;80;21570;-56
2021/04/04 08:17:37;;;;;;;7.97;3.85;;;;;;;17.41;29.22;96665.05;1796500;78;21068;-55
2021/04/04 08:20:32;;;;;;;4.90;3.67;;;;;;;16.92;28.99;96657.52;1783729;78;21559;-56
2021/04/04 08:23:26;;;;;;;4.78;3.42;;;;;;;16.43;29.77;96660.80;1792185;79;21072;-56
2021/04/04 08:26:04;;;;;;;4.47;2.45;;;;;;;15.81;30.21;96661.68;1790033;79;21158;-57
2021/04/04 08:28:49;;;;;;;3.62;2.42;;;;;;;15.52;30.38;96662.95;1782039;79;21400;-55
2021/04/04 08:31:38;;;;;;;10.43;7.55;;;;;;;16.17;29.06;96658.79;1763699;79;21742;-58
2021/04/04 08:34:22;;;;;;;20.77;11.43;;;;;;;16.90;28.43;96656.81;1759434;81;21098;-56
2021/04/04 08:37:01;;;;;;;9.30;4.90;;;;;;;17.71;26.24;96651.22;1760818;81;21060;-56
2021/04/04 08:39:31;;;;;;;2.70;2.20;;;;;;;18.18;25.46;96652.25;1755663;79;21228;-57
2021/04/04 08:42:02;;;;;;;4.80;2.42;;;;;;;17.90;25.69;96654.20;1767564;79;22085;-57
2021/04/04 08:44:45;;;;;;;4.08;2.47;;;;;;;17.82;26.05;96656.23;1765029;79;21089;-57
2021/04/04 08:47:26;;;;;;;5.80;2.58;;;;;;;18.35;26.24;96654.98;1730028;80;21202;-57
2021/04/04 08:49:57;;;;;;;3.15;2.20;;;;;;;19.29;25.61;96654.09;1752707;81;21149;-57
2021/04/04 08:52:29;;;;;;;2.90;2.42;;;;;;;19.97;24.54;96662.72;1789429;78;21208;-58
2021/04/04 08:54:57;;;;;;;3.27;2.42;;;;;;;20.22;23.96;96660.06;1777117;80;21168;-57
2021/04/04 08:57:35;;;;;;;2.75;2.55;;;;;;;19.89;23.61;96661.91;1724725;81;21084;-57
2021/04/04 09:00:12;;;;;;;3.05;2.70;;;;;;;19.01;24.00;96662.70;1745104;80;21167;-56
2021/04/04 09:03:01;;;;;;;3.17;2.55;;;;;;;18.06;25.47;96657.44;1747095;81;21553;-58
2021/04/04 09:05:36;;;;;;;3.22;2.37;;;;;;;17.91;26.21;96662.42;1748971;80;21143;-59
2021/04/04 09:08:06;;;;;;;2.83;2.05;;;;;;;18.49;26.16;96656.23;1771336;80;21568;-56
2021/04/04 09:10:38;;;;;;;2.50;2.02;;;;;;;18.71;25.75;96650.90;1758235;80;21542;-56
2021/04/04 09:13:12;;;;;;;3.80;2.08;;;;;;;18.42;25.08;96649.92;1788400;78;21139;-57
2021/04/04 09:15:51;;;;;;;3.50;2.42;;;;;;;17.81;25.78;96662.94;1754483;80;21075;-56
2021/04/04 09:18:22;;;;;;;;;;;;;;;16.94;26.75;96656.06;1791969;78;21052;-56
2021/04/04 09:21:07;;;;;;;3.65;2.22;;;;;;;16.14;27.60;96656.45;1782098;78;21258;-57
2021/04/04 09:23:37;;;;;;;2.52;2.10;;;;;;;15.82;27.84;96655.47;1761964;80;21111;-58
2021/04/04 09:26:13;;;;;;;2.15;1.92;;;;;;;16.33;27.17;96651.66;1780960;79;21167;-58
2021/04/04 09:28:43;;;;;;;1.85;1.30;;;;;;;16.51;26.36;96651.73;1781844;80;21168;-56
2021/04/04 09:31:39;;;;;;;2.77;1.82;;;;;;;16.34;26.17;96659.02;1732822;81;21051;-57
2021/04/04 09:34:13;;;;;;;2.47;2.00;;;;;;;15.66;26.56;96659.94;1710603;82;21218;-55
2021/04/04 09:36:49;;;;;;;1.90;1.40;;;;;;;14.75;28.23;96652.71;1694086;82;21086;-56
2021/04/04 09:39:21;;;;;;;1.60;1.30;;;;;;;14.15;28.28;96654.20;1707279;84;21072;-57
2021/04/04 09:41:52;;;;;;;2.77;2.37;;;;;;;13.57;28.93;96654.66;1735794;80;21648;-56
2021/04/04 09:44:29;;;;;;;4.08;2.42;;;;;;;13.16;30.49;96651.46;1682454;83;21075;-57
2021/04/04 09:47:01;;;;;;;12.82;8.60;;;;;;;13.08;31.74;96651.58;1714130;80;22102;-62
2021/04/04 09:49:48;;;;;;;9.93;4.55;;;;;;;13.02;32.04;96653.36;1724055;82;21114;-57
2021/04/04 09:52:27;;;;;;;76.67;21.65;;;;;;;13.01;32.23;96654.78;1881288;74;28492;-56
2021/04/04 09:55:09;;;;;;;4.62;2.65;;;;;;;12.79;32.07;96654.36;1835503;77;21102;-57
2021/04/04 10:00:31;;;;;;;3.00;2.23;;;;;;;11.93;31.80;96662.59;1869631;75;27776;-59
2021/04/04 10:03:13;;;;;;;3.17;2.12;;;;;;;11.57;32.31;96659.14;1829188;77;21114;-58
2021/04/04 10:05:45;;;;;;;2.40;1.80;;;;;;;11.23;32.98;96656.42;1843522;77;21359;-57
2021/04/04 10:08:23;;;;;;;2.65;1.87;;;;;;;10.96;34.14;96654.50;1839834;77;21050;-57
2021/04/04 10:10:56;;;;;;;4.17;2.52;;;;;;;10.83;34.45;96654.05;1831145;77;20991;-58
2021/04/04 10:13:26;;;;;;;7.47;2.62;;;;;;;10.68;35.10;96651.25;1785652;78;21584;-59
2021/04/04 10:15:54;;;;;;;3.08;2.22;;;;;;;10.62;35.67;96649.90;1827604;77;21112;-57
2021/04/04 10:18:25;;;;;;;3.02;2.20;;;;;;;10.52;35.33;96646.30;1804561;77;21131;-57
2021/04/04 10:20:57;;;;;;;2.37;2.17;;;;;;;10.30;36.29;96646.92;1759148;80;21173;-57
2021/04/04 10:23:33;;;;;;;3.47;2.50;;;;;;;10.24;36.27;96644.74;1799232;78;21061;-56
2021/04/04 10:26:08;;;;;;;4.55;2.67;;;;;;;10.07;36.68;96650.61;1816190;77;21087;-56
2021/04/04 10:28:52;;;;;;;4.90;2.85;;;;;;;9.98;36.93;96653.80;1815494;77;21104;-56
2021/04/04 10:31:23;;;;;;;4.28;2.75;;;;;;;9.92;36.74;96650.36;1819521;77;21437;-57
2021/04/04 10:34:02;;;;;;;5.37;2.80;;;;;;;9.85;36.90;96654.27;1789469;77;21120;-58
2021/04/04 10:36:31;;;;;;;5.42;2.95;;;;;;;9.80;37.72;96656.34;1818168;77;21144;-55
2021/04/04 10:38:58;;;;;;;4.22;2.92;;;;;;;9.70;38.14;96653.52;1811867;77;21168;-55
2021/04/04 10:41:36;;;;;;;3.15;2.55;;;;;;;9.52;38.85;96661.59;1827754;77;21060;-57
2021/04/04 10:44:06;;;;;;;3.45;2.70;;;;;;;9.42;39.09;96662.27;1822818;77;21191;-57
2021/04/04 10:46:35;;;;;;;4.72;3.02;;;;;;;9.34;39.14;96667.49;1803382;77;21188;-57
2021/04/04 10:49:05;;;;;;;5.87;3.30;;;;;;;9.27;39.82;96664.09;1806545;77;21057;-57
2021/04/04 10:51:34;;;;;;;6.78;3.50;;;;;;;9.17;40.22;96660.78;1793016;79;21061;-56
2021/04/04 10:54:03;;;;;;;5.95;3.60;;;;;;;9.10;40.46;96657.41;1809639;77;21132;-56
2021/04/04 10:56:34;;;;;;;4.72;3.02;;;;;;;9.07;40.71;96659.72;1787089;79;22416;-58
2021/04/04 10:59:06;;;;;;;3.08;2.70;;;;;;;9.09;40.80;96662.21;1792194;79;21172;-56
2021/04/04 11:01:35;;;;;;;4.75;2.42;;;;;;;9.10;40.55;96654.82;1755141;80;21398;-57
2021/04/04 11:04:05;;;;;;;3.65;2.67;;;;;;;9.09;40.11;96655.73;1742037;80;21073;-56
2021/04/04 11:06:33;;;;;;;6.47;2.67;;;;;;;9.01;39.97;96655.77;1761297;80;21600;-58
2021/04/04 11:09:01;;;;;;;4.12;2.47;;;;;;;9.00;39.30;96660.57;1757995;80;21338;-56
2021/04/04 11:11:32;;;;;;;4.40;3.37;;;;;;;9.06;39.10;96656.75;1761401;80;21167;-58
2021/04/04 11:14:02;;;;;;;4.75;3.75;;;;;;;9.02;40.14;96644.47;1747467;80;21145;-56
2021/04/04 11:16:31;;;;;;;7.05;4.28;;;;;;;8.97;41.35;96651.70;1733701;80;21175;-56
2021/04/04 11:18:59;;;;;;;5.60;3.35;;;;;;;8.87;41.86;96650.62;1789629;79;21684;-56
2021/04/04 11:21:39;;;;;;;5.70;3.45;;;;;;;8.71;42.11;96654.63;1741775;79;22067;-56
2021/04/04 11:24:16;;;;;;;11.50;3.80;;;;;;;8.57;42.52;96652.91;1778387;79;21161;-56
2021/04/04 11:26:58;;;;;;;13.53;8.33;;;;;;;8.43;43.39;96656.31;1782983;79;21125;-57
2021/04/04 11:29:27;;;;;;;59.23;34.13;;;;;;;8.32;43.73;96650.11;1789725;79;21065;-56
2021/04/04 11:32:03;;;;;;;41.90;23.85;;;;;;;8.23;44.71;96652.33;1757502;80;21494;-54
2021/04/04 11:34:39;;;;;;;12.43;7.25;;;;;;;8.17;46.70;96658.33;1750850;81;21296;-55
2021/04/04 11:37:16;;;;;;;6.80;4.40;;;;;;;8.10;46.30;96665.14;1744347;80;21085;-55
2021/04/04 11:40:10;;;;;;;10.65;4.78;;;;;;;8.05;46.38;96661.19;1743056;81;21074;-55
2021/04/04 11:42:41;;;;;;;6.97;4.20;;;;;;;8.09;46.37;96660.91;1708113;82;21584;-55
2021/04/04 11:47:51;;;;;;;7.22;5.33;;;;;;;8.18;46.50;96658.23;1717742;82;21454;-56
2021/04/04 11:50:25;;;;;;;5.87;4.60;;;;;;;8.24;46.40;96659.61;1712484;83;20956;-56
2021/04/04 11:52:57;;;;;;;7.85;3.90;;;;;;;8.27;46.25;96653.81;1704888;84;21160;-56
2021/04/04 11:55:25;;;;;;;5.97;3.70;;;;;;;8.27;45.81;96660.28;1698787;82;21166;-57
2021/04/04 11:57:52;;;;;;;20.68;9.85;;;;;;;8.27;45.67;96653.81;1631025;86;21668;-56
2021/04/04 12:00:23;;;;;;;10.32;6.00;;;;;;;8.45;45.14;96657.08;1710915;82;22246;-55
2021/04/04 12:02:58;;;;;;;4.65;3.77;;;;;;;8.44;45.57;96653.29;1714474;82;21091;-54
2021/04/04 12:05:35;;;;;;;6.65;4.50;;;;;;;8.56;45.39;96653.81;1712990;82;21587;-56
2021/04/04 12:08:25;;;;;;;6.60;4.70;;;;;;;8.69;45.06;96652.60;1712869;83;21167;-56
2021/04/04 12:10:55;;;;;;;5.78;4.40;;;;;;;8.76;45.59;96648.70;1731686;82;21085;-55
2021/04/04 12:13:23;;;;;;;6.62;4.83;;;;;;;8.76;46.02;96650.47;1731156;82;21379;-56
2021/04/04 12:15:59;;;;;;;5.78;4.35;;;;;;;8.63;45.95;96644.77;1728528;82;21085;-55
2021/04/04 12:18:26;;;;;;;5.85;4.37;;;;;;;8.46;46.60;96656.61;1720264;83;21176;-56
2021/04/04 12:21:01;;;;;;;5.15;4.65;;;;;;;8.42;47.01;96652.50;1700414;84;21124;-54